Time;durP1;ratioP1;P1;durP2;ratioP2;P2;SDS_P1;SDS_P2;PMS_P1;PMS_P2;Temp;Humidity;BMP_temperature;BMP_pressure;BME280_temperature;BME280_humidity;BME280_pressure;Samples;Min_cycle;Max_cycle;Signal;HPM_P1;HPM_P2
2022/08/16 00:00:44;;;;;;;4.00;3.70;;;23.80;56.80;;;;;;5083729;28;20068;-51
2022/08/16 00:03:11;;;;;;;4.03;3.65;;;23.70;56.70;;;;;;5090204;28;20427;-51
2022/08/16 00:05:43;;;;;;;3.78;3.47;;;23.80;56.40;;;;;;5077987;28;20132;-49
2022/08/16 00:08:14;;;;;;;4.30;3.65;;;23.80;56.30;;;;;;5083881;28;20075;-48
2022/08/16 00:11:02;;;;;;;3.97;3.67;;;23.90;56.30;;;;;;5088713;28;20071;-49
2022/08/16 00:13:33;;;;;;;3.95;3.53;;;23.90;55.90;;;;;;5091288;28;20040;-46
2022/08/16 00:16:08;;;;;;;4.85;3.50;;;23.90;55.90;;;;;;5067406;28;20050;-50
2022/08/16 00:18:59;;;;;;;3.55;3.22;;;23.90;55.80;;;;;;5081491;28;20068;-51
2022/08/16 00:21:28;;;;;;;3.45;3.15;;;23.90;55.50;;;;;;5083807;28;20719;-51
2022/08/16 00:23:57;;;;;;;4.28;3.50;;;24.00;56.10;;;;;;5091098;28;20220;-49
2022/08/16 00:26:24;;;;;;;3.67;3.13;;;24.00;55.50;;;;;;5083504;28;20109;-51
2022/08/16 00:29:11;;;;;;;3.80;3.50;;;24.00;55.30;;;;;;5083035;28;20043;-52
2022/08/16 00:31:41;;;;;;;3.60;3.30;;;24.00;55.20;;;;;;5067555;28;20504;-49
2022/08/16 00:34:28;;;;;;;3.60;3.30;;;24.00;55.10;;;;;;5080892;28;20208;-50
2022/08/16 00:37:13;;;;;;;3.80;3.42;;;24.00;55.10;;;;;;5058907;28;20053;-49
2022/08/16 00:39:47;;;;;;;3.10;2.75;;;24.00;55.10;;;;;;5073849;28;20059;-51
2022/08/16 00:42:27;;;;;;;6.03;3.30;;;24.00;55.10;;;;;;5075708;28;20041;-47
2022/08/16 00:45:04;;;;;;;3.47;3.17;;;24.00;55.10;;;;;;5052455;28;20056;-47
2022/08/16 00:47:37;;;;;;;3.63;3.17;;;24.00;55.20;;;;;;5069859;28;20094;-48
2022/08/16 00:50:05;;;;;;;3.15;2.85;;;23.90;55.00;;;;;;5067044;28;20127;-51
2022/08/16 00:52:42;;;;;;;3.58;3.28;;;23.90;55.00;;;;;;5078601;28;20048;-48
2022/08/16 00:55:19;;;;;;;3.83;3.03;;;23.90;55.10;;;;;;5067484;28;20040;-47
2022/08/16 00:57:49;;;;;;;3.55;3.22;;;23.90;54.90;;;;;;5060418;28;20072;-51
2022/08/16 01:00:29;;;;;;;3.80;3.50;;;23.80;54.90;;;;;;5049077;28;20541;-51
2022/08/16 01:03:04;;;;;;;3.13;2.92;;;23.80;54.90;;;;;;5035957;28;20052;-47
2022/08/16 01:05:38;;;;;;;3.05;2.85;;;23.80;55.00;;;;;;5071765;28;20109;-47
2022/08/16 01:08:06;;;;;;;4.60;3.50;;;23.80;54.90;;;;;;5081626;28;20450;-51
2022/08/16 01:10:56;;;;;;;4.35;3.17;;;23.70;54.90;;;;;;5072463;28;20504;-51
2022/08/16 01:13:32;;;;;;;;;;;23.70;54.90;;;;;;5051673;28;20052;-51
2022/08/16 01:16:17;;;;;;;3.03;2.70;;;23.80;54.40;;;;;;5062654;28;20389;-51
2022/08/16 01:18:51;;;;;;;2.75;2.55;;;23.80;55.30;;;;;;5089802;28;20066;-48
2022/08/16 01:21:35;;;;;;;6.07;4.00;;;23.70;54.70;;;;;;5068555;28;20040;-47
2022/08/16 01:24:11;;;;;;;3.65;3.00;;;23.70;55.00;;;;;;5056712;28;20045;-47
2022/08/16 01:27:05;;;;;;;3.05;2.75;;;23.60;54.90;;;;;;5080658;28;20123;-49
2022/08/16 01:29:43;;;;;;;3.60;2.85;;;23.70;54.90;;;;;;5070939;28;20044;-51
2022/08/16 01:32:26;;;;;;;3.38;2.55;;;23.60;55.00;;;;;;5072847;28;20506;-49
2022/08/16 01:35:05;;;;;;;4.03;2.97;;;23.60;54.80;;;;;;5057246;28;20041;-49
2022/08/16 01:37:41;;;;;;;3.78;3.47;;;23.60;55.10;;;;;;5070325;28;20435;-51
2022/08/16 01:40:13;;;;;;;4.07;2.85;;;23.60;55.20;;;;;;5056645;28;20595;-51
2022/08/16 01:42:42;;;;;;;3.33;2.95;;;23.50;55.10;;;;;;5059457;28;20037;-51
2022/08/16 01:45:13;;;;;;;;;;;23.50;55.20;;;;;;5051212;28;20536;-51
2022/08/16 01:47:49;;;;;;;2.65;2.45;;;23.50;54.70;;;;;;5064131;28;19920;-50
2022/08/16 01:50:20;;;;;;;3.10;2.88;;;23.50;55.40;;;;;;5057172;28;20048;-51
2022/08/16 01:53:10;;;;;;;3.53;3.20;;;23.40;54.90;;;;;;5065594;28;20075;-51
2022/08/16 01:55:56;;;;;;;3.78;3.47;;;23.40;55.00;;;;;;5070913;28;20040;-48
2022/08/16 01:58:25;;;;;;;3.47;2.88;;;23.40;55.10;;;;;;5070938;28;20508;-51
2022/08/16 02:00:56;;;;;;;2.92;2.72;;;23.40;55.30;;;;;;5056130;28;20452;-47
2022/08/16 02:03:28;;;;;;;3.90;2.90;;;23.40;55.40;;;;;;5083648;28;20036;-48
2022/08/16 02:05:58;;;;;;;3.10;2.80;;;23.30;55.30;;;;;;5073782;28;20079;-51
2022/08/16 02:08:29;;;;;;;3.80;2.97;;;23.20;55.40;;;;;;5051989;28;20049;-47
2022/08/16 02:11:08;;;;;;;3.10;2.80;;;23.20;55.50;;;;;;5052597;28;20045;-47
2022/08/16 02:13:40;;;;;;;3.30;3.00;;;23.20;56.00;;;;;;5065649;28;20134;-48
2022/08/16 02:16:25;;;;;;;8.98;3.67;;;23.20;55.70;;;;;;5090476;28;20385;-52
2022/08/16 02:18:52;;;;;;;3.35;3.00;;;23.20;55.60;;;;;;5019174;28;1130049;-51
2022/08/16 02:21:19;;;;;;;3.20;2.85;;;23.20;55.80;;;;;;5068267;28;20530;-51
2022/08/16 02:23:57;;;;;;;5.20;3.65;;;23.10;55.80;;;;;;5084937;28;20051;-47
2022/08/16 02:26:28;;;;;;;3.80;2.88;;;23.10;56.00;;;;;;5087127;28;20092;-49
2022/08/16 02:29:00;;;;;;;3.35;3.05;;;23.10;56.00;;;;;;5056602;28;20044;-51
2022/08/16 02:31:28;;;;;;;3.53;3.22;;;23.10;56.10;;;;;;5066534;28;20047;-47
2022/08/16 02:34:19;;;;;;;3.00;2.67;;;23.10;56.10;;;;;;5092226;28;20040;-48
2022/08/16 02:36:58;;;;;;;3.40;3.10;;;23.00;56.10;;;;;;5062725;28;20068;-47
2022/08/16 02:39:26;;;;;;;3.13;2.85;;;23.00;56.80;;;;;;5057052;28;20620;-47
2022/08/16 02:41:59;;;;;;;4.13;3.33;;;22.90;56.20;;;;;;5066661;28;20054;-46
2022/08/16 02:44:26;;;;;;;3.10;2.90;;;22.90;56.30;;;;;;5054317;28;20439;-51
2022/08/16 02:46:54;;;;;;;3.63;3.28;;;22.90;57.10;;;;;;5049453;28;20048;-48
2022/08/16 02:49:26;;;;;;;2.97;2.53;;;22.90;56.60;;;;;;5067334;28;20416;-51
2022/08/16 02:52:14;;;;;;;3.33;3.03;;;22.80;56.80;;;;;;5073863;28;20036;-47
2022/08/16 02:54:53;;;;;;;3.50;2.90;;;22.80;57.30;;;;;;5058711;28;20049;-48
2022/08/16 02:57:24;;;;;;;3.10;2.80;;;22.80;56.80;;;;;;5054018;28;20163;-47
2022/08/16 02:59:51;;;;;;;3.25;3.05;;;22.70;57.10;;;;;;5088562;28;20393;-49
2022/08/16 03:02:18;;;;;;;4.95;3.40;;;22.70;57.10;;;;;;5092310;28;20408;-49
2022/08/16 03:04:58;;;;;;;4.45;3.55;;;22.60;57.30;;;;;;5057248;28;20040;-47
2022/08/16 03:07:25;;;;;;;3.10;2.90;;;22.70;57.30;;;;;;5059086;28;20060;-50
2022/08/16 03:09:54;;;;;;;3.35;3.05;;;22.60;57.30;;;;;;5053645;28;20050;-51
2022/08/16 03:12:25;;;;;;;3.50;3.20;;;22.60;57.40;;;;;;5054177;28;20139;-49
2022/08/16 03:14:58;;;;;;;3.17;2.97;;;22.60;57.40;;;;;;5049251;28;20500;-51
2022/08/16 03:17:25;;;;;;;3.65;3.33;;;22.60;57.50;;;;;;5060853;28;20040;-48
2022/08/16 03:20:03;;;;;;;3.53;3.33;;;22.50;57.60;;;;;;5065098;28;20653;-47
2022/08/16 03:22:35;;;;;;;3.75;3.40;;;22.50;57.60;;;;;;5065124;28;20821;-48
2022/08/16 03:25:10;;;;;;;3.28;2.97;;;22.50;57.80;;;;;;5054430;28;20036;-49
2022/08/16 03:27:40;;;;;;;3.47;2.90;;;22.50;57.90;;;;;;5061282;28;20052;-47
2022/08/16 03:30:19;;;;;;;4.38;3.10;;;22.40;57.90;;;;;;5073111;28;20059;-48
2022/08/16 03:32:51;;;;;;;5.45;3.42;;;22.40;58.10;;;;;;5058391;28;20059;-50
2022/08/16 03:35:29;;;;;;;3.60;3.30;;;22.40;58.00;;;;;;5060507;28;20044;-50
2022/08/16 03:38:04;;;;;;;3.85;3.40;;;22.40;58.00;;;;;;5053223;28;20060;-51
2022/08/16 03:40:54;;;;;;;4.43;3.20;;;22.40;58.00;;;;;;5058941;28;20101;-51
2022/08/16 03:43:23;;;;;;;4.00;3.13;;;22.40;57.80;;;;;;5049710;28;20051;-51
2022/08/16 03:46:14;;;;;;;3.70;3.30;;;22.30;57.70;;;;;;5064223;28;20041;-48
2022/08/16 03:49:10;;;;;;;5.07;3.58;;;22.30;57.70;;;;;;5072801;28;20779;-50
2022/08/16 03:51:39;;;;;;;4.60;3.58;;;22.20;57.90;;;;;;5056777;28;20058;-48
2022/08/16 03:54:08;;;;;;;4.75;3.58;;;22.20;58.20;;;;;;5063477;28;20444;-51
2022/08/16 03:56:42;;;;;;;4.53;3.25;;;22.20;58.50;;;;;;5072759;28;20040;-51
2022/08/16 03:59:28;;;;;;;5.05;4.65;;;22.10;58.60;;;;;;5052425;28;20048;-47
2022/08/16 04:02:02;;;;;;;4.18;3.30;;;22.10;58.80;;;;;;5055886;28;20079;-47
2022/08/16 04:04:42;;;;;;;3.47;3.20;;;22.10;59.00;;;;;;5064288;28;20463;-51
2022/08/16 04:07:09;;;;;;;3.53;3.23;;;22.10;59.20;;;;;;5072394;28;20044;-48
2022/08/16 04:09:39;;;;;;;4.40;3.65;;;22.00;59.00;;;;;;5048489;28;20429;-51
2022/08/16 04:12:14;;;;;;;3.97;3.67;;;22.00;59.20;;;;;;5085274;28;20048;-49
2022/08/16 04:15:03;;;;;;;4.20;3.80;;;22.00;59.40;;;;;;5070761;28;20089;-48
2022/08/16 04:17:41;;;;;;;4.28;3.85;;;22.00;59.40;;;;;;5062449;28;20052;-47
2022/08/16 04:20:12;;;;;;;3.72;3.42;;;22.00;59.30;;;;;;5061274;28;20041;-51
2022/08/16 04:23:00;;;;;;;3.90;3.58;;;22.00;59.40;;;;;;5062661;28;20043;-47
2022/08/16 04:25:32;;;;;;;5.47;4.78;;;22.00;59.50;;;;;;5066205;28;20040;-49
2022/08/16 04:27:59;;;;;;;4.40;4.00;;;22.00;59.60;;;;;;5072918;28;20036;-48
2022/08/16 04:30:46;;;;;;;4.13;3.83;;;22.00;59.60;;;;;;5061105;28;20051;-51
2022/08/16 04:33:18;;;;;;;4.63;4.22;;;22.00;59.60;;;;;;5063888;28;20040;-47
2022/08/16 04:35:56;;;;;;;3.67;3.38;;;22.00;59.60;;;;;;5072954;28;20522;-47
2022/08/16 04:38:24;;;;;;;3.95;3.65;;;22.00;59.80;;;;;;5065348;28;20393;-51
2022/08/16 04:40:55;;;;;;;4.30;3.90;;;22.00;59.90;;;;;;5070970;28;20045;-50
2022/08/16 04:43:24;;;;;;;4.00;3.65;;;22.00;60.10;;;;;;5053940;28;20068;-51
2022/08/16 04:45:50;;;;;;;4.75;4.18;;;22.00;59.90;;;;;;5070929;28;20075;-48
2022/08/16 04:48:30;;;;;;;3.90;3.58;;;22.10;60.00;;;;;;5048830;28;20049;-47
2022/08/16 04:51:02;;;;;;;4.70;4.25;;;22.00;60.10;;;;;;5084165;28;20044;-50
2022/08/16 04:53:51;;;;;;;4.35;3.97;;;22.10;60.10;;;;;;5068865;28;20508;-51
2022/08/16 04:56:19;;;;;;;3.90;3.60;;;22.10;60.30;;;;;;5068697;28;20042;-48
2022/08/16 04:58:49;;;;;;;4.13;3.78;;;22.10;60.10;;;;;;5041032;28;20051;-47
2022/08/16 05:01:19;;;;;;;5.00;3.88;;;22.10;60.20;;;;;;5066183;28;20098;-47
2022/08/16 05:03:49;;;;;;;3.97;3.55;;;22.10;60.30;;;;;;5072829;28;20040;-48
2022/08/16 05:06:32;;;;;;;4.30;4.00;;;22.10;60.30;;;;;;5042066;28;20044;-46
2022/08/16 05:09:13;;;;;;;4.45;4.05;;;22.10;60.30;;;;;;5058862;28;20105;-48
2022/08/16 05:11:42;;;;;;;4.18;3.78;;;22.20;60.30;;;;;;5064508;28;20420;-46
2022/08/16 05:14:10;;;;;;;4.80;3.70;;;22.20;60.40;;;;;;5064200;28;20093;-47
2022/08/16 05:16:46;;;;;;;4.28;3.63;;;22.20;60.40;;;;;;5060009;28;20040;-46
2022/08/16 05:19:17;;;;;;;5.10;4.70;;;22.20;60.30;;;;;;5065733;28;20041;-48
2022/08/16 05:22:10;;;;;;;4.43;4.13;;;22.20;60.30;;;;;;5071429;28;20181;-47
2022/08/16 05:24:45;;;;;;;4.30;3.90;;;22.30;60.30;;;;;;5050934;28;20420;-47
2022/08/16 05:27:37;;;;;;;5.25;3.92;;;22.30;60.40;;;;;;5082724;28;20400;-50
2022/08/16 05:30:14;;;;;;;4.45;3.97;;;22.40;60.80;;;;;;5029746;28;20041;-47
2022/08/16 05:33:04;;;;;;;5.07;4.30;;;22.40;60.50;;;;;;4999276;28;20876;-49
2022/08/16 05:35:34;;;;;;;3.90;3.60;;;22.40;60.40;;;;;;4991744;28;20042;-48
2022/08/16 05:38:10;;;;;;;4.47;4.07;;;22.50;60.30;;;;;;5011652;28;20414;-49
2022/08/16 05:41:01;;;;;;;4.57;4.18;;;22.50;60.30;;;;;;5015400;28;20038;-46
2022/08/16 05:43:35;;;;;;;3.90;3.60;;;22.50;60.30;;;;;;4992554;28;20045;-46
2022/08/16 05:46:18;;;;;;;4.18;3.75;;;22.60;60.30;;;;;;5015024;28;20050;-51
2022/08/16 05:49:01;;;;;;;3.78;3.47;;;22.60;60.30;;;;;;5029276;28;20056;-49
2022/08/16 05:51:36;;;;;;;3.90;3.60;;;22.70;60.60;;;;;;5018156;28;20584;-48
2022/08/16 05:54:11;;;;;;;4.63;4.05;;;22.70;60.50;;;;;;4996386;28;20053;-51
2022/08/16 05:56:42;;;;;;;4.03;3.65;;;22.70;60.80;;;;;;5003394;28;20045;-47
2022/08/16 05:59:09;;;;;;;4.57;4.20;;;22.70;60.40;;;;;;5015791;28;20095;-53
2022/08/16 06:01:37;;;;;;;5.90;5.07;;;22.70;60.20;;;;;;5024643;28;20050;-46
2022/08/16 06:04:06;;;;;;;5.38;4.50;;;22.80;60.30;;;;;;5028447;28;20438;-44
2022/08/16 06:06:55;;;;;;;5.18;4.05;;;22.80;60.40;;;;;;5014788;28;20120;-47
2022/08/16 06:09:26;;;;;;;;;;;22.80;60.20;;;;;;4996522;28;20045;-47
2022/08/16 06:12:14;;;;;;;5.28;4.78;;;22.90;59.90;;;;;;5006577;28;19925;-44
2022/08/16 06:15:00;;;;;;;5.05;4.45;;;22.90;59.60;;;;;;5026540;28;20053;-45
2022/08/16 06:17:28;;;;;;;4.70;4.30;;;23.00;59.70;;;;;;5033160;28;20038;-45
2022/08/16 06:20:30;;;;;;;4.35;4.05;;;23.00;59.90;;;;;;5026400;28;20046;-48
2022/08/16 06:23:03;;;;;;;5.22;4.43;;;23.00;60.10;;;;;;5008750;28;20506;-49
2022/08/16 06:26:06;;;;;;;5.72;4.65;;;23.00;59.70;;;;;;5015114;28;20107;-45
2022/08/16 06:28:36;;;;;;;5.35;4.85;;;23.10;59.60;;;;;;5003715;28;20453;-48
2022/08/16 06:31:10;;;;;;;5.15;4.30;;;23.20;59.70;;;;;;5002706;28;20038;-46
2022/08/16 06:33:40;;;;;;;6.93;4.72;;;23.20;59.80;;;;;;5007308;28;20395;-48
2022/08/16 06:36:13;;;;;;;5.30;4.47;;;23.20;59.70;;;;;;5014866;28;20045;-49
2022/08/16 06:38:46;;;;;;;6.03;5.53;;;23.30;59.70;;;;;;5014920;28;20097;-44
2022/08/16 06:41:27;;;;;;;5.63;5.13;;;23.30;59.50;;;;;;5003497;28;20037;-49
2022/08/16 06:44:09;;;;;;;5.38;4.88;;;23.30;59.30;;;;;;5011310;28;20084;-51
2022/08/16 06:46:54;;;;;;;6.38;5.78;;;23.40;59.30;;;;;;4997822;28;20073;-47
2022/08/16 06:49:21;;;;;;;6.53;5.45;;;23.50;59.20;;;;;;4989116;28;20049;-49
2022/08/16 06:51:48;;;;;;;5.75;5.25;;;23.50;59.30;;;;;;5002026;28;20060;-49
2022/08/16 06:54:23;;;;;;;6.75;5.13;;;23.50;59.20;;;;;;5012834;28;20050;-49
2022/08/16 06:56:51;;;;;;;6.38;4.95;;;23.60;59.40;;;;;;5014643;28;20413;-48
2022/08/16 06:59:21;;;;;;;6.13;5.57;;;23.60;59.20;;;;;;5007743;28;20042;-49
2022/08/16 07:01:55;;;;;;;6.82;5.78;;;23.70;59.10;;;;;;5006974;28;20037;-48
2022/08/16 07:04:26;;;;;;;5.65;5.15;;;23.70;59.00;;;;;;5014855;28;20045;-45
2022/08/16 07:07:11;;;;;;;6.38;5.78;;;23.80;59.00;;;;;;5031040;28;20056;-45
2022/08/16 07:09:41;;;;;;;6.30;5.72;;;23.80;58.90;;;;;;5017390;28;20061;-47
2022/08/16 07:12:08;;;;;;;7.97;5.53;;;23.80;58.80;;;;;;5006587;28;20065;-46
2022/08/16 07:14:39;;;;;;;8.35;7.32;;;23.90;58.80;;;;;;5014523;28;20045;-46
2022/08/16 07:17:07;;;;;;;6.55;5.85;;;23.90;58.50;;;;;;5011868;28;20076;-46
2022/08/16 07:19:43;;;;;;;6.15;5.53;;;24.00;58.40;;;;;;4995771;28;20092;-47
2022/08/16 07:22:41;;;;;;;5.78;5.18;;;24.00;58.40;;;;;;5003521;28;20037;-45
2022/08/16 07:25:13;;;;;;;6.95;5.63;;;24.10;58.40;;;;;;5030848;28;20421;-50
2022/08/16 07:27:43;;;;;;;9.57;7.10;;;24.20;58.30;;;;;;5001911;28;20052;-46
2022/08/16 07:30:15;;;;;;;7.10;6.15;;;24.20;58.10;;;;;;5012068;28;20498;-46
2022/08/16 07:33:04;;;;;;;7.15;5.95;;;24.30;57.90;;;;;;5014355;28;20046;-46
2022/08/16 07:35:34;;;;;;;6.47;5.88;;;24.40;58.20;;;;;;5008834;28;20053;-45
2022/08/16 07:38:03;;;;;;;5.55;5.05;;;24.40;58.20;;;;;;4997933;28;20044;-46
2022/08/16 07:40:56;;;;;;;6.63;6.10;;;24.50;58.30;;;;;;5030369;28;20187;-49
2022/08/16 07:43:28;;;;;;;6.53;5.70;;;24.60;57.90;;;;;;5014252;28;20073;-48
2022/08/16 07:45:58;;;;;;;6.13;5.53;;;24.70;58.10;;;;;;4997685;28;20589;-48
2022/08/16 07:48:30;;;;;;;7.90;6.35;;;24.80;58.10;;;;;;5000785;28;20050;-50
2022/08/16 07:50:57;;;;;;;7.32;6.63;;;25.00;57.60;;;;;;5009984;28;20049;-46
2022/08/16 07:53:33;;;;;;;10.43;5.50;;;25.10;57.50;;;;;;4994226;28;20108;-45
2022/08/16 07:56:10;;;;;;;9.25;7.28;;;25.20;57.30;;;;;;4996449;28;20096;-47
2022/08/16 07:58:41;;;;;;;7.30;6.43;;;25.30;56.90;;;;;;5011474;28;20065;-45
2022/08/16 08:01:12;;;;;;;8.48;7.25;;;25.50;56.70;;;;;;5013915;28;20132;-47
2022/08/16 08:03:46;;;;;;;7.13;6.53;;;25.60;56.30;;;;;;5007548;28;20042;-45
2022/08/16 08:06:22;;;;;;;6.82;6.22;;;25.70;56.20;;;;;;5001823;28;20042;-48
2022/08/16 08:08:55;;;;;;;8.98;7.53;;;25.80;56.00;;;;;;5010266;28;20549;-45
2022/08/16 08:11:27;;;;;;;8.40;7.60;;;25.90;55.50;;;;;;4976611;28;20124;-45
2022/08/16 08:14:01;;;;;;;8.98;7.03;;;26.00;55.00;;;;;;4990696;28;20038;-49
2022/08/16 08:16:32;;;;;;;9.27;7.35;;;26.00;55.20;;;;;;4999129;28;20063;-49
2022/08/16 08:19:01;;;;;;;7.28;6.68;;;26.10;54.80;;;;;;5008368;28;20051;-47
2022/08/16 08:21:32;;;;;;;8.23;6.88;;;26.10;54.70;;;;;;4993687;28;20053;-48
2022/08/16 08:24:21;;;;;;;8.65;7.70;;;26.10;54.50;;;;;;4994172;28;20425;-45
2022/08/16 08:27:01;;;;;;;8.65;7.45;;;26.20;54.40;;;;;;5003889;28;20103;-48
2022/08/16 08:29:35;;;;;;;9.82;7.60;;;26.20;54.20;;;;;;4996727;28;20129;-46
2022/08/16 08:32:09;;;;;;;10.02;6.40;;;26.30;54.10;;;;;;4993528;28;20046;-45
2022/08/16 08:35:01;;;;;;;7.72;7.00;;;26.30;54.50;;;;;;4994848;28;20108;-45
2022/08/16 08:37:33;;;;;;;7.38;6.57;;;26.40;53.90;;;;;;4997343;28;20129;-47
2022/08/16 08:40:22;;;;;;;7.03;6.32;;;26.40;53.70;;;;;;4982314;28;20050;-47
2022/08/16 08:42:52;;;;;;;7.30;6.60;;;26.60;54.10;;;;;;4989787;28;20124;-48
2022/08/16 08:45:29;;;;;;;6.97;6.30;;;26.50;53.50;;;;;;4987862;28;20422;-50
2022/08/16 08:48:16;;;;;;;8.32;7.40;;;26.60;53.50;;;;;;5006792;28;20045;-46
2022/08/16 08:51:05;;;;;;;7.55;5.82;;;26.70;53.40;;;;;;5006707;28;20093;-49
2022/08/16 08:53:42;;;;;;;6.13;5.60;;;26.80;53.30;;;;;;4991353;28;20495;-47
2022/08/16 08:56:10;;;;;;;6.25;5.60;;;26.90;53.20;;;;;;5005673;28;20047;-45
2022/08/16 08:58:52;;;;;;;6.45;5.93;;;27.00;53.50;;;;;;5025201;28;20041;-47
2022/08/16 09:01:34;;;;;;;5.40;4.93;;;27.10;52.60;;;;;;4997498;28;20045;-48
2022/08/16 09:04:09;;;;;;;7.45;5.82;;;27.30;52.60;;;;;;5011636;28;20047;-46
2022/08/16 09:06:41;;;;;;;;;;;27.40;52.30;;;;;;5017085;28;20068;-44
2022/08/16 09:09:10;;;;;;;5.82;4.18;;;27.60;52.60;;;;;;5007576;28;20008;-51
2022/08/16 09:11:46;;;;;;;5.82;5.28;;;27.70;52.20;;;;;;5000008;28;20056;-45
2022/08/16 09:14:26;;;;;;;8.43;5.78;;;27.80;51.90;;;;;;5012794;28;20042;-47
2022/08/16 09:16:53;;;;;;;7.60;6.22;;;27.90;51.30;;;;;;5016390;28;20049;-47
2022/08/16 09:19:37;;;;;;;6.15;5.65;;;28.00;51.00;;;;;;5012230;28;20165;-46
2022/08/16 09:22:08;;;;;;;5.95;5.45;;;28.10;50.30;;;;;;5005321;28;20046;-50
2022/08/16 09:24:49;;;;;;;6.15;5.25;;;28.10;50.30;;;;;;5016522;28;20049;-45
2022/08/16 09:27:23;;;;;;;7.90;5.70;;;28.20;50.40;;;;;;4997167;28;20100;-47
2022/08/16 09:29:52;;;;;;;6.38;5.78;;;28.20;50.20;;;;;;4998062;28;20053;-47
2022/08/16 09:32:28;;;;;;;6.38;5.88;;;28.30;50.00;;;;;;5030320;28;20132;-50
2022/08/16 09:34:58;;;;;;;6.00;5.45;;;28.40;50.10;;;;;;5034134;28;20050;-46
2022/08/16 09:37:30;;;;;;;8.57;6.60;;;28.40;49.90;;;;;;5028168;28;20120;-48
2022/08/16 09:40:05;;;;;;;8.50;5.90;;;28.40;49.60;;;;;;5013698;28;20407;-50
2022/08/16 09:42:54;;;;;;;6.57;5.95;;;28.40;49.20;;;;;;5026565;28;20045;-47
2022/08/16 09:45:27;;;;;;;5.90;5.40;;;28.50;49.30;;;;;;5005241;28;20502;-50
2022/08/16 09:47:55;;;;;;;7.07;5.20;;;28.50;48.80;;;;;;5024270;28;20044;-51
2022/08/16 09:50:28;;;;;;;7.63;6.88;;;28.50;48.70;;;;;;5025069;28;20042;-48
2022/08/16 09:53:21;;;;;;;6.93;5.53;;;28.50;48.60;;;;;;5010157;28;20041;-49
2022/08/16 09:55:52;;;;;;;5.97;5.47;;;28.60;48.00;;;;;;5024946;28;20049;-47
2022/08/16 09:58:25;;;;;;;6.30;5.70;;;28.60;48.70;;;;;;5011581;28;20044;-45
2022/08/16 10:01:12;;;;;;;6.95;6.25;;;28.60;48.60;;;;;;5022015;28;20045;-49
2022/08/16 10:03:38;;;;;;;6.03;5.50;;;28.70;48.40;;;;;;5019363;28;20057;-49
2022/08/16 10:06:26;;;;;;;5.35;4.90;;;28.60;47.50;;;;;;5010007;28;20148;-45
2022/08/16 10:09:09;;;;;;;5.55;5.15;;;28.70;47.50;;;;;;5016157;28;20492;-47
2022/08/16 10:14:45;;;;;;;5.82;4.35;;;28.70;47.20;;;;;;4977028;28;20081;-49
2022/08/16 10:17:12;;;;;;;5.28;4.80;;;28.70;47.30;;;;;;5015011;28;20046;-45
2022/08/16 10:19:40;;;;;;;5.53;5.03;;;28.70;46.70;;;;;;5023426;28;20069;-46
2022/08/16 10:22:09;;;;;;;6.13;4.80;;;28.80;46.30;;;;;;5030166;28;20520;-49
2022/08/16 10:24:41;;;;;;;5.18;4.47;;;28.80;46.00;;;;;;5008961;28;20076;-49
2022/08/16 10:27:27;;;;;;;4.93;4.10;;;28.80;45.70;;;;;;5015024;28;20088;-50
2022/08/16 10:30:16;;;;;;;4.53;3.92;;;28.80;45.60;;;;;;5029909;28;20059;-51
2022/08/16 10:32:54;;;;;;;5.07;4.53;;;28.90;45.70;;;;;;5006911;28;20050;-52
2022/08/16 10:35:22;;;;;;;6.53;4.60;;;28.90;45.30;;;;;;5008010;28;20103;-51
2022/08/16 10:37:50;;;;;;;5.03;4.10;;;29.00;45.40;;;;;;5020743;28;20045;-50
2022/08/16 10:40:19;;;;;;;4.80;4.18;;;29.00;44.90;;;;;;5030942;28;20114;-49
2022/08/16 10:42:58;;;;;;;4.47;3.95;;;29.10;44.80;;;;;;5030364;28;20041;-49
2022/08/16 10:45:28;;;;;;;6.43;4.40;;;29.20;44.90;;;;;;5019799;28;20116;-45
2022/08/16 10:48:05;;;;;;;6.50;3.95;;;29.30;44.20;;;;;;5023576;28;20095;-49
2022/08/16 10:50:53;;;;;;;5.57;4.22;;;29.40;43.80;;;;;;5030237;28;20080;-48
2022/08/16 10:53:20;;;;;;;5.35;4.70;;;29.40;43.80;;;;;;5023648;28;20049;-46
2022/08/16 10:55:47;;;;;;;4.70;3.75;;;29.50;43.90;;;;;;5013303;28;20073;-49
2022/08/16 10:58:23;;;;;;;4.28;3.85;;;29.60;43.50;;;;;;5016174;28;20041;-46
2022/08/16 11:01:05;;;;;;;4.85;3.58;;;29.70;43.20;;;;;;5030427;28;20477;-51
2022/08/16 11:03:55;;;;;;;4.00;3.70;;;29.80;43.20;;;;;;5022120;28;20065;-53
2022/08/16 11:06:24;;;;;;;4.70;4.10;;;30.00;42.70;;;;;;5020522;28;20132;-46
2022/08/16 11:08:55;;;;;;;4.80;4.20;;;30.20;42.60;;;;;;5016736;28;20116;-51
2022/08/16 11:11:41;;;;;;;4.18;3.78;;;30.40;42.90;;;;;;5006903;28;20038;-46
2022/08/16 11:14:28;;;;;;;4.43;4.00;;;30.50;42.50;;;;;;5021699;28;20136;-50
2022/08/16 11:17:00;;;;;;;3.55;3.35;;;30.80;42.30;;;;;;5017333;28;20045;-53
2022/08/16 11:19:34;;;;;;;4.57;3.47;;;30.90;40.90;;;;;;4997672;28;20120;-49
2022/08/16 11:22:21;;;;;;;3.80;3.30;;;31.10;40.90;;;;;;5002871;28;20076;-49
2022/08/16 11:25:09;;;;;;;4.28;3.95;;;31.40;40.70;;;;;;5020442;28;20073;-49
2022/08/16 11:27:38;;;;;;;3.70;3.35;;;31.50;40.30;;;;;;5030066;28;20048;-49
2022/08/16 11:30:06;;;;;;;5.15;4.13;;;31.60;39.20;;;;;;5067695;22;20443;-50
2022/08/16 11:32:45;;;;;;;4.55;3.17;;;31.60;39.60;;;;;;5067193;28;20063;-50
2022/08/16 11:35:16;;;;;;;3.90;3.40;;;31.70;39.00;;;;;;5065889;28;20128;-52
2022/08/16 11:37:56;;;;;;;4.47;3.75;;;31.70;38.80;;;;;;5076054;28;20040;-49
2022/08/16 11:40:49;;;;;;;6.25;3.95;;;31.70;38.80;;;;;;5065048;28;20139;-51
2022/08/16 11:43:22;;;;;;;5.22;4.72;;;31.80;39.10;;;;;;5052581;28;20088;-50
2022/08/16 11:45:52;;;;;;;4.05;3.78;;;31.90;38.90;;;;;;5063031;28;20084;-49
2022/08/16 11:48:21;;;;;;;5.50;3.45;;;31.90;38.70;;;;;;5069004;28;20052;-50
2022/08/16 11:50:48;;;;;;;3.90;3.55;;;32.00;38.20;;;;;;5069580;28;20050;-52
2022/08/16 11:53:15;;;;;;;4.43;3.40;;;32.00;37.60;;;;;;5083401;28;20040;-51
2022/08/16 11:55:43;;;;;;;4.32;4.00;;;32.00;37.60;;;;;;5074569;28;20082;-54
2022/08/16 11:58:10;;;;;;;3.22;3.03;;;32.00;38.00;;;;;;5070256;28;20089;-51
2022/08/16 12:00:42;;;;;;;3.95;3.60;;;31.90;38.30;;;;;;5069031;28;20447;-49
2022/08/16 12:03:23;;;;;;;4.32;3.60;;;31.90;37.60;;;;;;5081872;28;20036;-51
2022/08/16 12:06:06;;;;;;;3.97;3.55;;;31.90;37.80;;;;;;5070569;28;20044;-50
2022/08/16 12:08:36;;;;;;;3.67;3.38;;;31.90;38.20;;;;;;5062404;28;20048;-51
2022/08/16 12:11:04;;;;;;;4.03;3.70;;;31.80;38.00;;;;;;5063429;28;20122;-51
2022/08/16 12:13:32;;;;;;;4.65;4.05;;;31.90;37.60;;;;;;5063768;28;20493;-49
2022/08/16 12:15:59;;;;;;;4.30;3.85;;;31.90;38.10;;;;;;5059915;28;20098;-51
2022/08/16 12:18:27;;;;;;;4.28;3.45;;;31.90;37.80;;;;;;5059660;28;20613;-51
2022/08/16 12:20:54;;;;;;;6.95;3.70;;;32.00;37.60;;;;;;5063471;28;20115;-51
2022/08/16 12:23:26;;;;;;;3.92;3.58;;;32.10;37.60;;;;;;5065928;28;20045;-50
2022/08/16 12:25:52;;;;;;;4.85;4.45;;;32.10;37.20;;;;;;5066927;28;20064;-50
2022/08/16 12:28:20;;;;;;;3.80;3.50;;;32.20;37.20;;;;;;5064012;28;20044;-50
2022/08/16 12:31:06;;;;;;;4.55;3.70;;;32.30;37.20;;;;;;5080366;28;20083;-50
2022/08/16 12:33:39;;;;;;;6.38;3.78;;;32.40;37.60;;;;;;5090175;28;20047;-51
2022/08/16 12:36:12;;;;;;;3.60;3.30;;;32.50;37.30;;;;;;5080141;28;20133;-53
2022/08/16 12:38:40;;;;;;;4.15;3.58;;;32.50;37.30;;;;;;5067226;28;20094;-51
2022/08/16 12:41:15;;;;;;;5.75;3.55;;;32.60;37.00;;;;;;5052072;28;20131;-52
2022/08/16 12:43:51;;;;;;;4.50;3.15;;;32.70;37.30;;;;;;5058455;28;20043;-53
2022/08/16 12:46:17;;;;;;;4.22;3.65;;;32.80;36.90;;;;;;5059822;28;20496;-51
2022/08/16 12:48:56;;;;;;;4.38;4.00;;;32.90;36.40;;;;;;5072208;28;20040;-54
2022/08/16 12:51:33;;;;;;;3.95;3.65;;;32.90;36.00;;;;;;5080429;28;20066;-52
2022/08/16 12:54:20;;;;;;;4.18;3.70;;;32.90;35.50;;;;;;5060546;28;20592;-51
2022/08/16 12:56:48;;;;;;;4.25;3.85;;;32.90;35.50;;;;;;5064134;28;20106;-52
2022/08/16 12:59:18;;;;;;;4.95;3.95;;;32.90;35.90;;;;;;5071492;28;20860;-51
2022/08/16 13:01:47;;;;;;;3.83;3.53;;;32.90;35.60;;;;;;5057778;28;20051;-52
2022/08/16 13:04:24;;;;;;;4.20;3.80;;;32.80;35.70;;;;;;5063144;28;20040;-52
2022/08/16 13:06:51;;;;;;;3.42;3.22;;;32.90;35.60;;;;;;5065360;28;20111;-54
2022/08/16 13:09:23;;;;;;;3.88;3.15;;;32.90;35.00;;;;;;5065372;28;20482;-53
2022/08/16 13:12:02;;;;;;;3.67;3.13;;;33.00;35.40;;;;;;5067067;28;20124;-52
2022/08/16 13:14:39;;;;;;;3.50;3.20;;;33.10;35.20;;;;;;5057767;28;20523;-54
2022/08/16 13:17:10;;;;;;;3.35;2.97;;;33.30;34.20;;;;;;5069524;28;20047;-54
2022/08/16 13:19:51;;;;;;;4.38;2.58;;;33.50;34.60;;;;;;5061622;28;20050;-54
2022/08/16 13:22:44;;;;;;;2.97;2.78;;;33.60;33.40;;;;;;5055912;28;20055;-51
2022/08/16 13:25:15;;;;;;;4.85;3.58;;;33.70;33.30;;;;;;5062478;28;20455;-52
2022/08/16 13:27:48;;;;;;;3.58;3.28;;;33.80;33.60;;;;;;5069056;28;20064;-54
2022/08/16 13:30:40;;;;;;;4.45;3.13;;;34.00;33.70;;;;;;5060806;28;20067;-52
2022/08/16 13:33:15;;;;;;;3.70;3.20;;;34.10;33.30;;;;;;5064387;28;20045;-51